Time;durP1;ratioP1;P1;durP2;ratioP2;P2;SDS_P1;SDS_P2;PMS_P1;PMS_P2;Temp;Humidity;BMP_temperature;BMP_pressure;BME280_temperature;BME280_humidity;BME280_pressure;Samples;Min_cycle;Max_cycle;Signal;HPM_P1;HPM_P2
2023/04/22 00:00:22;;;;;;;15.82;9.57;;;;;;;14.35;42.53;101434.63;5007447;28;20044;-54
2023/04/22 00:02:48;;;;;;;15.70;8.15;;;;;;;14.28;42.77;101429.72;4999175;28;20616;-53
2023/04/22 00:05:13;;;;;;;19.38;8.90;;;;;;;14.32;42.88;101425.91;5005326;28;20395;-54
2023/04/22 00:07:42;;;;;;;15.02;8.55;;;;;;;14.38;42.70;101423.84;5007338;28;20037;-50
2023/04/22 00:10:11;;;;;;;27.65;10.00;;;;;;;14.41;42.76;101439.53;5006852;28;20460;-54
2023/04/22 00:12:37;;;;;;;20.05;9.30;;;;;;;14.38;42.71;101427.31;5009111;28;20033;-52
2023/04/22 00:15:03;;;;;;;17.58;9.57;;;;;;;14.38;42.86;101426.50;5006890;28;20068;-51
2023/04/22 00:17:29;;;;;;;16.23;9.30;;;;;;;14.38;43.15;101419.38;5013490;28;20026;-52
2023/04/22 00:19:55;;;;;;;17.30;9.45;;;;;;;14.40;42.91;101421.94;5004058;28;20079;-51
2023/04/22 00:22:20;;;;;;;16.35;8.77;;;;;;;14.33;43.13;101421.50;5008607;28;20048;-49
2023/04/22 00:24:46;;;;;;;16.75;9.27;;;;;;;14.33;43.07;101417.03;4993354;28;20050;-51
2023/04/22 00:27:11;;;;;;;11.27;5.88;;;;;;;14.32;43.26;101415.31;5005867;28;20037;-49
2023/04/22 00:29:37;;;;;;;20.02;9.55;;;;;;;14.30;43.26;101422.50;5009405;28;20072;-49
2023/04/22 00:32:02;;;;;;;18.50;9.73;;;;;;;14.28;43.42;101418.28;4985797;28;20060;-50
2023/04/22 00:34:28;;;;;;;18.88;9.35;;;;;;;14.17;43.35;101413.66;5004721;28;20071;-53
2023/04/22 00:36:53;;;;;;;18.15;8.77;;;;;;;14.14;43.53;101411.22;5005712;28;20088;-53
2023/04/22 00:39:18;;;;;;;18.10;9.75;;;;;;;14.12;43.59;101408.63;5011219;28;20034;-50
2023/04/22 00:41:45;;;;;;;15.00;9.65;;;;;;;14.06;43.67;101408.16;5002940;28;20392;-54
2023/04/22 00:44:11;;;;;;;14.10;8.63;;;;;;;14.02;43.74;101402.22;5004232;28;20026;-51
2023/04/22 00:46:38;;;;;;;15.57;10.05;;;;;;;13.99;43.93;101408.53;5001459;28;20435;-56
2023/04/22 00:49:05;;;;;;;20.48;9.60;;;;;;;13.95;43.96;101404.41;5011060;28;20092;-56
2023/04/22 00:51:31;;;;;;;15.85;9.85;;;;;;;13.93;44.12;101408.94;5005148;28;20690;-48
2023/04/22 00:53:56;;;;;;;25.70;10.45;;;;;;;13.91;44.09;101400.25;5009714;28;20025;-53
2023/04/22 00:56:25;;;;;;;19.30;9.07;;;;;;;13.87;44.22;101399.59;4987379;28;20048;-54
2023/04/22 00:58:52;;;;;;;19.42;9.40;;;;;;;13.86;44.13;101400.53;5008557;28;20060;-48
2023/04/22 01:01:17;;;;;;;16.08;8.38;;;;;;;13.79;44.41;101401.00;4999142;28;20056;-51
2023/04/22 01:03:45;;;;;;;15.27;8.50;;;;;;;13.77;44.46;101397.59;5011154;28;20045;-53
2023/04/22 01:06:10;;;;;;;14.65;7.97;;;;;;;13.75;44.45;101394.19;5005225;28;20492;-52
2023/04/22 01:08:36;;;;;;;16.65;8.95;;;;;;;13.76;44.33;101401.19;5007643;28;20061;-51
2023/04/22 01:11:01;;;;;;;22.08;8.52;;;;;;;13.74;44.43;101397.75;4995926;28;20427;-55
2023/04/22 01:13:29;;;;;;;15.68;8.52;;;;;;;13.72;44.46;101400.50;5007882;28;20507;-57
2023/04/22 01:15:55;;;;;;;19.00;9.07;;;;;;;13.71;44.63;101404.09;5004396;28;20037;-48
2023/04/22 01:18:21;;;;;;;16.80;9.77;;;;;;;13.65;44.75;101402.69;5006394;28;20388;-52
2023/04/22 01:20:46;;;;;;;20.98;10.63;;;;;;;13.59;44.96;101400.41;5008818;28;20038;-53
2023/04/22 01:23:21;;;;;;;19.48;9.63;;;;;;;13.54;45.20;101402.47;5008149;28;20053;-53
2023/04/22 01:25:47;;;;;;;20.63;9.57;;;;;;;13.52;45.00;101401.72;5006850;28;20042;-51
2023/04/22 01:28:14;;;;;;;17.17;8.77;;;;;;;13.49;45.07;101404.53;5012371;28;21963;-50
2023/04/22 01:30:41;;;;;;;16.40;8.88;;;;;;;13.48;44.90;101400.19;5006545;28;20075;-53
2023/04/22 01:33:07;;;;;;;14.48;8.88;;;;;;;13.43;45.14;101391.69;5011961;28;20029;-53
2023/04/22 01:35:38;;;;;;;15.18;8.25;;;;;;;13.41;45.01;101392.63;5008041;28;20030;-53
2023/04/22 01:38:06;;;;;;;15.38;7.50;;;;;;;13.38;45.01;101390.16;5010916;28;20120;-54
2023/04/22 01:40:32;;;;;;;16.67;8.18;;;;;;;13.36;45.13;101393.81;5008941;28;22051;-53
2023/04/22 01:43:01;;;;;;;12.27;7.93;;;;;;;13.36;45.30;101386.75;5004225;28;20627;-54
2023/04/22 01:45:27;;;;;;;15.70;8.20;;;;;;;13.32;45.13;101390.50;5011611;28;20172;-54
2023/04/22 01:47:53;;;;;;;16.20;8.30;;;;;;;13.27;45.31;101381.97;5004942;28;20030;-53
2023/04/22 01:50:20;;;;;;;17.40;9.10;;;;;;;13.21;45.43;101379.72;5009207;28;20051;-53
2023/04/22 01:52:45;;;;;;;18.90;10.73;;;;;;;13.21;45.51;101385.00;5010932;28;20088;-53
2023/04/22 01:55:11;;;;;;;26.15;9.25;;;;;;;13.21;45.49;101380.56;5010253;28;20060;-50
2023/04/22 01:57:36;;;;;;;11.02;8.02;;;;;;;13.27;45.48;101374.06;5008509;28;20061;-51
2023/04/22 02:00:04;;;;;;;18.00;8.30;;;;;;;13.29;45.66;101366.88;5009619;28;20025;-51
2023/04/22 02:02:30;;;;;;;17.77;8.05;;;;;;;13.34;45.55;101363.97;5008723;28;20026;-52
2023/04/22 02:04:55;;;;;;;14.05;7.78;;;;;;;13.35;45.60;101366.53;5006523;28;20097;-51
2023/04/22 02:07:20;;;;;;;14.13;8.52;;;;;;;13.35;45.55;101358.59;5008786;28;20029;-53
2023/04/22 02:09:46;;;;;;;16.58;9.32;;;;;;;13.38;45.68;101360.22;5009287;28;20041;-54
2023/04/22 02:12:11;;;;;;;18.23;8.18;;;;;;;13.38;45.64;101358.44;5012774;28;20034;-50
2023/04/22 02:14:37;;;;;;;14.65;7.93;;;;;;;13.41;45.60;101346.84;5009809;28;20046;-52
2023/04/22 02:17:02;;;;;;;15.00;8.95;;;;;;;13.43;45.79;101360.81;5012526;28;20041;-51
2023/04/22 02:19:28;;;;;;;14.13;8.13;;;;;;;13.48;45.87;101360.53;5008401;28;20513;-53
2023/04/22 02:21:53;;;;;;;11.98;7.22;;;;;;;13.49;45.84;101354.31;5006116;28;20474;-53
2023/04/22 02:24:19;;;;;;;16.90;8.15;;;;;;;13.51;45.85;101352.44;4995552;28;20049;-50
2023/04/22 02:26:46;;;;;;;15.93;8.27;;;;;;;13.52;46.16;101341.75;5004654;28;20862;-53
2023/04/22 02:29:11;;;;;;;16.23;7.85;;;;;;;13.44;46.09;101340.50;5004849;28;20152;-53
2023/04/22 02:31:37;;;;;;;19.05;8.70;;;;;;;13.46;46.04;101335.97;5007174;28;20041;-51
2023/04/22 02:34:03;;;;;;;15.40;8.00;;;;;;;13.47;45.92;101340.34;5005080;28;20036;-53
2023/04/22 02:36:28;;;;;;;14.95;8.43;;;;;;;13.50;46.11;101337.50;5010232;28;20021;-49
2023/04/22 02:38:54;;;;;;;17.65;8.63;;;;;;;13.52;46.19;101335.63;5009560;28;20465;-50
2023/04/22 02:41:19;;;;;;;16.70;8.65;;;;;;;13.52;46.12;101330.34;5006890;28;20042;-51
2023/04/22 02:43:45;;;;;;;12.68;7.03;;;;;;;13.52;46.17;101325.06;5010674;28;20045;-52
2023/04/22 02:46:15;;;;;;;13.32;8.07;;;;;;;13.52;46.32;101322.41;5010707;28;20037;-50
2023/04/22 02:48:41;;;;;;;13.68;8.10;;;;;;;13.54;46.26;101324.00;5005925;28;20048;-50
2023/04/22 02:51:07;;;;;;;14.60;8.77;;;;;;;13.57;46.01;101323.81;4998195;28;20029;-53
2023/04/22 02:53:32;;;;;;;16.30;7.40;;;;;;;13.56;46.25;101323.91;5003068;28;20028;-52
2023/04/22 02:55:58;;;;;;;13.63;7.72;;;;;;;13.59;45.93;101321.06;5004366;28;20034;-53
2023/04/22 02:58:25;;;;;;;16.77;8.77;;;;;;;13.60;45.92;101314.00;5008149;28;20604;-53
2023/04/22 03:00:50;;;;;;;16.00;8.00;;;;;;;13.61;45.78;101324.47;5003437;28;20041;-51
2023/04/22 03:03:16;;;;;;;17.15;8.23;;;;;;;13.62;45.65;101330.59;5008041;28;20033;-53
2023/04/22 03:05:41;;;;;;;15.10;8.63;;;;;;;13.60;45.68;101327.22;5011172;28;20048;-54
2023/04/22 03:08:07;;;;;;;16.35;8.82;;;;;;;13.56;45.75;101323.91;5008095;28;20113;-54
2023/04/22 03:10:32;;;;;;;19.23;9.13;;;;;;;13.49;45.75;101319.94;5009904;28;20037;-53
2023/04/22 03:12:57;;;;;;;14.77;8.70;;;;;;;13.47;45.91;101316.53;5010446;28;20050;-53
2023/04/22 03:15:23;;;;;;;22.02;9.52;;;;;;;13.46;45.77;101314.84;5004105;28;20935;-54
2023/04/22 03:17:48;;;;;;;18.67;8.68;;;;;;;13.44;46.01;101308.78;5006053;28;20049;-53
2023/04/22 03:20:15;;;;;;;17.20;8.23;;;;;;;13.39;46.05;101309.88;5009233;28;20124;-53
2023/04/22 03:22:40;;;;;;;11.75;7.18;;;;;;;13.39;45.99;101312.53;5006310;28;20209;-51
2023/04/22 03:25:06;;;;;;;14.45;8.20;;;;;;;13.36;45.99;101310.09;5012714;28;20487;-52
2023/04/22 03:27:31;;;;;;;15.13;8.32;;;;;;;13.31;46.06;101309.50;4985649;28;20029;-50
2023/04/22 03:29:57;;;;;;;14.68;7.97;;;;;;;13.30;46.04;101312.25;5006487;28;24768;-51
2023/04/22 03:32:22;;;;;;;11.68;7.60;;;;;;;13.27;46.12;101306.19;5011071;28;20037;-53
2023/04/22 03:34:48;;;;;;;12.88;7.80;;;;;;;13.21;46.25;101306.56;5001286;28;20096;-50
2023/04/22 03:37:13;;;;;;;9.77;5.38;;;;;;;13.17;46.40;101309.47;5011142;28;20488;-53
2023/04/22 03:39:39;;;;;;;12.63;7.50;;;;;;;13.19;46.38;101315.53;5005986;28;20502;-53
2023/04/22 03:42:04;;;;;;;18.02;9.07;;;;;;;13.20;46.32;101304.03;5010383;28;20399;-51
2023/04/22 03:44:30;;;;;;;14.13;8.02;;;;;;;13.21;46.19;101308.38;5005174;28;20037;-53
2023/04/22 03:46:55;;;;;;;16.58;8.15;;;;;;;13.14;46.44;101309.66;5006710;28;20038;-54
2023/04/22 03:49:21;;;;;;;13.60;7.95;;;;;;;13.10;46.52;101307.19;5005474;28;22124;-52
2023/04/22 03:51:46;;;;;;;13.65;8.27;;;;;;;13.10;46.46;101309.00;5009244;28;20045;-50
2023/04/22 03:54:12;;;;;;;9.80;4.45;;;;;;;13.08;46.40;101311.72;5008766;28;20041;-50
2023/04/22 03:56:37;;;;;;;15.65;7.68;;;;;;;13.06;46.43;101310.13;5004032;28;20432;-52
2023/04/22 03:59:03;;;;;;;16.42;7.70;;;;;;;13.07;46.49;101314.47;5005747;28;20069;-52
2023/04/22 04:01:28;;;;;;;37.35;17.02;;;;;;;13.05;46.53;101311.06;5003211;28;20125;-53
2023/04/22 04:03:53;;;;;;;17.55;8.93;;;;;;;13.08;46.68;101308.25;5004988;28;20030;-53
2023/04/22 04:06:19;;;;;;;18.05;7.47;;;;;;;13.09;46.55;101310.78;5010059;28;20044;-54
2023/04/22 04:08:45;;;;;;;14.35;7.47;;;;;;;13.13;46.45;101307.97;5002642;28;20515;-51
2023/04/22 04:11:10;;;;;;;14.95;7.68;;;;;;;13.13;46.50;101313.25;5007197;28;20036;-52
2023/04/22 04:13:36;;;;;;;14.18;7.45;;;;;;;13.11;46.36;101308.91;5005243;28;20037;-53
2023/04/22 04:16:02;;;;;;;14.57;7.60;;;;;;;13.11;46.60;101306.25;4992720;28;20041;-53
2023/04/22 04:18:28;;;;;;;14.90;8.32;;;;;;;13.08;46.45;101309.06;5008707;28;20159;-52
2023/04/22 04:20:54;;;;;;;19.10;7.15;;;;;;;13.08;46.40;101309.06;5007546;28;20161;-51
2023/04/22 04:23:19;;;;;;;13.13;7.10;;;;;;;13.10;46.42;101309.00;5010875;28;20077;-51
2023/04/22 04:25:45;;;;;;;16.23;7.40;;;;;;;13.13;46.35;101307.97;5007856;28;20176;-53
2023/04/22 04:28:10;;;;;;;12.30;7.50;;;;;;;13.14;46.32;101304.38;5010497;28;20032;-52
2023/04/22 04:30:36;;;;;;;11.82;6.72;;;;;;;13.10;46.70;101304.56;5005479;28;20049;-51
2023/04/22 04:33:06;;;;;;;13.70;7.03;;;;;;;13.13;46.45;101307.97;5003742;28;20044;-53
2023/04/22 04:35:33;;;;;;;13.50;7.28;;;;;;;13.07;46.49;101303.91;5003886;28;20025;-53
2023/04/22 04:37:59;;;;;;;11.57;6.47;;;;;;;13.07;46.60;101307.41;5006054;28;20526;-50
2023/04/22 04:40:25;;;;;;;16.80;7.97;;;;;;;13.13;46.51;101302.66;5003494;28;20033;-50
2023/04/22 04:42:51;;;;;;;13.20;6.68;;;;;;;13.17;46.33;101306.84;5009463;28;20030;-53
2023/04/22 04:45:18;;;;;;;14.75;7.47;;;;;;;13.18;46.25;101306.72;5001969;28;21980;-54
2023/04/22 04:47:43;;;;;;;15.70;6.80;;;;;;;13.05;46.74;101309.28;5004356;28;20059;-53
2023/04/22 04:50:10;;;;;;;13.65;7.40;;;;;;;13.04;46.75;101304.94;5008036;28;20036;-54
2023/04/22 04:52:36;;;;;;;12.20;6.43;;;;;;;13.07;46.56;101306.53;5004674;28;20026;-54
2023/04/22 04:55:01;;;;;;;14.25;6.05;;;;;;;13.16;46.50;101307.78;5007163;28;20057;-53
2023/04/22 04:57:26;;;;;;;13.27;6.15;;;;;;;13.20;46.42;101310.16;5008244;28;20041;-52
2023/04/22 04:59:52;;;;;;;10.30;6.03;;;;;;;13.21;46.36;101298.63;5008100;28;20041;-51
2023/04/22 05:02:17;;;;;;;14.43;6.32;;;;;;;13.20;46.31;101304.84;5005992;28;20041;-50
2023/04/22 05:04:43;;;;;;;13.88;7.45;;;;;;;13.22;46.47;101307.44;5005897;28;20487;-54
2023/04/22 05:07:08;;;;;;;14.05;7.05;;;;;;;13.25;46.41;101313.38;5002806;28;20026;-52
2023/04/22 05:09:36;;;;;;;11.40;6.13;;;;;;;13.25;46.21;101315.16;4999365;28;20091;-53
2023/04/22 05:12:02;;;;;;;16.92;6.93;;;;;;;13.29;46.52;101308.75;5007879;28;20025;-52
2023/04/22 05:14:28;;;;;;;14.25;6.32;;;;;;;13.33;46.21;101315.56;4989085;28;20057;-53
2023/04/22 05:16:53;;;;;;;14.15;5.78;;;;;;;13.39;45.97;101323.09;5013510;28;20083;-51
2023/04/22 05:19:19;;;;;;;12.48;6.88;;;;;;;13.41;46.04;101318.59;5006849;28;20511;-53
2023/04/22 05:21:44;;;;;;;15.85;6.40;;;;;;;13.46;45.96;101326.25;5005097;28;20045;-50
2023/04/22 05:24:10;;;;;;;15.02;6.88;;;;;;;13.48;45.83;101323.53;5005338;28;20059;-54
2023/04/22 05:26:35;;;;;;;12.80;6.10;;;;;;;13.49;45.85;101315.50;5002624;28;20411;-53
2023/04/22 05:29:01;;;;;;;14.18;6.03;;;;;;;13.50;45.69;101311.91;5004884;28;20096;-50
2023/04/22 05:31:27;;;;;;;20.77;11.10;;;;;;;13.53;45.79;101317.00;5005191;28;20029;-50
2023/04/22 05:33:53;;;;;;;10.90;5.82;;;;;;;13.54;45.89;101315.22;5013768;28;20041;-50
2023/04/22 05:36:19;;;;;;;14.32;6.00;;;;;;;13.59;45.91;101313.13;4998348;28;20045;-51
2023/04/22 05:38:44;;;;;;;13.85;5.88;;;;;;;13.63;45.73;101312.00;4988935;28;20056;-52
2023/04/22 05:41:09;;;;;;;13.20;7.18;;;;;;;13.66;45.56;101306.53;5005388;28;20026;-51
2023/04/22 05:43:35;;;;;;;10.52;5.78;;;;;;;13.66;45.57;101310.97;4988432;28;20033;-54
2023/04/22 05:46:00;;;;;;;11.98;5.75;;;;;;;13.67;45.58;101316.19;4999703;28;20068;-53
2023/04/22 05:48:26;;;;;;;15.65;7.13;;;;;;;13.70;45.26;101309.84;5010935;28;20013;-51
2023/04/22 05:50:53;;;;;;;10.50;6.22;;;;;;;13.77;45.52;101305.03;5016027;28;20053;-54
2023/04/22 05:53:18;;;;;;;13.57;6.25;;;;;;;13.76;45.44;101313.91;5014497;28;20038;-54
2023/04/22 05:55:44;;;;;;;8.43;5.85;;;;;;;13.76;45.38;101313.91;5015125;28;20064;-53
2023/04/22 05:58:09;;;;;;;13.57;6.38;;;;;;;13.77;45.41;101310.31;5024529;28;20069;-51
2023/04/22 06:00:35;;;;;;;11.88;5.95;;;;;;;13.76;45.54;101311.25;5022258;28;20025;-53
2023/04/22 06:03:00;;;;;;;12.13;7.25;;;;;;;13.84;45.57;101309.00;5028422;28;20033;-53
2023/04/22 06:05:26;;;;;;;19.90;9.77;;;;;;;13.86;45.60;101307.94;5012501;28;20406;-51
2023/04/22 06:07:52;;;;;;;10.25;5.63;;;;;;;13.87;45.38;101312.28;5010191;28;20072;-49
2023/04/22 06:10:17;;;;;;;11.43;6.03;;;;;;;13.92;45.30;101306.69;5008392;28;20095;-54
2023/04/22 06:12:43;;;;;;;11.35;5.43;;;;;;;13.95;45.12;101310.94;5012996;28;20048;-50
2023/04/22 06:15:08;;;;;;;14.23;5.60;;;;;;;13.93;45.32;101308.41;5010158;28;20037;-52
2023/04/22 06:17:34;;;;;;;12.40;6.38;;;;;;;13.92;45.36;101317.28;4990760;28;20426;-52
2023/04/22 06:19:59;;;;;;;10.77;5.50;;;;;;;13.97;45.52;101311.69;5010334;28;20033;-52
2023/04/22 06:22:25;;;;;;;12.23;6.68;;;;;;;14.00;45.32;101309.69;5012841;28;20033;-53
2023/04/22 06:24:50;;;;;;;13.07;6.45;;;;;;;14.00;45.43;101307.06;5007996;28;20033;-52
2023/04/22 06:27:16;;;;;;;12.35;6.80;;;;;;;14.03;45.25;101306.88;5013840;28;20033;-49
2023/04/22 06:29:41;;;;;;;12.07;6.03;;;;;;;14.02;45.40;101299.03;5014931;28;20524;-54
2023/04/22 06:32:07;;;;;;;11.15;6.10;;;;;;;14.06;45.52;101294.38;5006789;28;20046;-51
2023/04/22 06:34:32;;;;;;;13.55;5.32;;;;;;;14.12;45.30;101291.38;5008883;28;20035;-51
2023/04/22 06:36:57;;;;;;;13.10;6.03;;;;;;;14.16;45.37;101299.00;5010704;28;20668;-51
2023/04/22 06:39:23;;;;;;;11.25;5.72;;;;;;;14.21;45.45;101295.22;4979865;28;20037;-52
2023/04/22 06:41:49;;;;;;;11.65;6.22;;;;;;;14.28;45.44;101291.22;5009516;28;20040;-53
2023/04/22 06:44:14;;;;;;;15.85;5.63;;;;;;;14.34;45.45;101290.84;5010765;28;20048;-54
2023/04/22 06:46:39;;;;;;;10.25;5.70;;;;;;;14.39;45.19;101294.00;5008705;28;20049;-53
2023/04/22 06:49:05;;;;;;;14.35;6.82;;;;;;;14.40;45.34;101289.56;4990548;28;20088;-54
2023/04/22 06:51:31;;;;;;;10.10;5.63;;;;;;;14.46;45.39;101291.81;5006035;28;20037;-53
2023/04/22 06:53:57;;;;;;;19.90;8.07;;;;;;;14.51;45.57;101292.38;5013434;28;20037;-52
2023/04/22 06:56:23;;;;;;;12.52;6.53;;;;;;;14.54;45.28;101292.16;5002330;28;20041;-52
2023/04/22 06:58:48;;;;;;;14.10;5.63;;;;;;;14.57;45.39;101299.91;5009968;28;20037;-54
2023/04/22 07:01:14;;;;;;;15.35;7.13;;;;;;;14.60;45.37;101297.03;5009535;28;20037;-54
2023/04/22 07:03:39;;;;;;;11.23;6.60;;;;;;;14.64;45.12;101287.13;5009631;28;20124;-51
2023/04/22 07:06:05;;;;;;;27.33;14.13;;;;;;;14.68;45.12;101285.97;5012999;28;20567;-54
2023/04/22 07:08:31;;;;;;;27.38;13.88;;;;;;;14.76;45.17;101288.09;5002430;28;20041;-53
2023/04/22 07:10:56;;;;;;;15.85;6.53;;;;;;;14.74;45.28;101290.03;5003907;28;20030;-54
2023/04/22 07:13:22;;;;;;;10.95;5.70;;;;;;;14.75;45.26;101287.28;5013571;28;20033;-54
2023/04/22 07:15:47;;;;;;;12.65;6.15;;;;;;;14.82;45.29;101282.41;5006826;28;20041;-55
2023/04/22 07:18:13;;;;;;;16.15;7.05;;;;;;;14.86;45.29;101278.63;5008940;28;20053;-52
2023/04/22 07:20:38;;;;;;;14.02;7.63;;;;;;;14.87;45.18;101277.66;5005031;28;20384;-55
2023/04/22 07:23:04;;;;;;;16.30;8.13;;;;;;;14.89;45.05;101275.75;5003477;28;20034;-54
2023/04/22 07:25:29;;;;;;;11.75;5.80;;;;;;;14.90;44.97;101280.09;4988836;28;20033;-54
2023/04/22 07:27:55;;;;;;;13.73;5.70;;;;;;;14.89;45.15;101277.53;5011632;28;20034;-58
2023/04/22 07:30:20;;;;;;;8.85;5.53;;;;;;;14.93;45.39;101277.22;5011979;28;20036;-53
2023/04/22 07:32:46;;;;;;;11.48;5.85;;;;;;;15.00;45.27;101272.34;5008825;28;20032;-51
2023/04/22 07:35:11;;;;;;;13.32;7.20;;;;;;;15.09;44.76;101269.09;5010517;28;20105;-53
2023/04/22 07:37:37;;;;;;;37.92;19.40;;;;;;;15.13;45.16;101269.72;5007138;28;20037;-55
2023/04/22 07:40:02;;;;;;;12.27;5.57;;;;;;;15.17;45.16;101276.53;4997331;28;26491;-56
2023/04/22 07:42:28;;;;;;;10.32;5.25;;;;;;;15.21;45.03;101271.84;5008502;28;20117;-55
2023/04/22 07:44:53;;;;;;;7.57;4.20;;;;;;;15.28;44.99;101269.63;5008802;28;20129;-54
2023/04/22 07:47:19;;;;;;;20.23;10.38;;;;;;;15.31;45.12;101269.41;4997017;28;20130;-53
2023/04/22 07:49:44;;;;;;;13.88;8.23;;;;;;;15.37;45.02;101268.97;5001303;28;20045;-55
2023/04/22 07:52:10;;;;;;;12.20;6.30;;;;;;;15.43;45.10;101267.72;5009395;28;20041;-54
2023/04/22 07:54:35;;;;;;;7.80;5.47;;;;;;;15.45;44.88;101264.00;5008764;28;20828;-55
2023/04/22 07:57:01;;;;;;;12.27;6.25;;;;;;;15.54;44.84;101260.69;5009881;28;20084;-53
2023/04/22 07:59:26;;;;;;;11.40;5.50;;;;;;;15.62;44.74;101261.97;5006707;28;20041;-54
2023/04/22 08:01:52;;;;;;;22.20;7.95;;;;;;;15.68;44.81;101251.75;5009430;28;20059;-54
2023/04/22 08:04:19;;;;;;;9.75;5.78;;;;;;;15.74;44.78;101255.78;5004974;28;20124;-55
2023/04/22 08:06:44;;;;;;;12.52;5.40;;;;;;;15.78;44.72;101259.91;4997884;28;20079;-55
2023/04/22 08:09:09;;;;;;;11.82;5.65;;;;;;;15.85;44.68;101253.22;4991742;28;20026;-51
2023/04/22 08:11:35;;;;;;;7.22;4.65;;;;;;;15.93;44.70;101259.81;5003484;28;20034;-52
2023/04/22 08:14:00;;;;;;;9.38;5.03;;;;;;;15.98;44.65;101247.88;5003628;28;20057;-54
2023/04/22 08:16:26;;;;;;;9.25;4.85;;;;;;;16.05;44.63;101252.72;5006817;28;20037;-57
2023/04/22 08:18:51;;;;;;;12.43;5.35;;;;;;;16.12;44.54;101246.84;4994290;28;20037;-53
2023/04/22 08:21:17;;;;;;;10.55;5.05;;;;;;;16.19;44.62;101249.06;5001460;28;20045;-53
2023/04/22 08:23:42;;;;;;;10.50;5.63;;;;;;;16.27;44.57;101246.69;5001134;28;20493;-52
2023/04/22 08:26:13;;;;;;;17.80;7.90;;;;;;;16.37;44.34;101238.91;4985833;28;20036;-49
2023/04/22 08:28:39;;;;;;;13.60;5.57;;;;;;;16.43;43.96;101236.63;4983466;28;20522;-54
2023/04/22 08:31:05;;;;;;;11.98;5.60;;;;;;;16.53;43.79;101243.91;5003760;28;20038;-55
2023/04/22 08:33:31;;;;;;;9.55;5.53;;;;;;;16.63;43.56;101241.44;5003219;28;20444;-57
2023/04/22 08:35:56;;;;;;;11.48;5.60;;;;;;;16.71;43.47;101242.50;4983043;28;20606;-50
2023/04/22 08:38:22;;;;;;;10.88;5.00;;;;;;;16.75;43.50;101236.00;4982501;28;20041;-56
2023/04/22 08:40:47;;;;;;;11.10;5.07;;;;;;;16.81;43.39;101234.69;5002898;28;20053;-55
2023/04/22 08:43:13;;;;;;;8.43;5.03;;;;;;;16.84;43.35;101228.31;5000455;28;20041;-52
2023/04/22 08:45:39;;;;;;;19.25;6.03;;;;;;;16.95;43.16;101228.34;5005579;28;20034;-51
2023/04/22 08:48:08;;;;;;;10.70;5.05;;;;;;;16.97;43.13;101222.91;5005963;28;20064;-55
2023/04/22 08:50:37;;;;;;;8.93;4.88;;;;;;;17.04;42.94;101219.66;5007681;28;20487;-50
2023/04/22 08:53:02;;;;;;;8.48;4.55;;;;;;;17.08;42.90;101211.44;5003463;28;20053;-55
2023/04/22 08:55:28;;;;;;;8.27;5.38;;;;;;;17.17;42.70;101213.38;5003020;28;20033;-55
2023/04/22 08:57:54;;;;;;;11.73;5.47;;;;;;;17.28;42.42;101215.19;5005098;28;20136;-54
2023/04/22 09:00:20;;;;;;;11.88;5.80;;;;;;;17.31;42.44;101215.81;5003746;28;20052;-50
2023/04/22 09:02:47;;;;;;;9.65;4.60;;;;;;;17.44;42.20;101217.50;5002273;28;20033;-51
2023/04/22 09:05:13;;;;;;;9.40;4.72;;;;;;;17.50;41.99;101219.66;5006397;28;20038;-54
2023/04/22 09:07:39;;;;;;;11.05;5.28;;;;;;;17.61;41.58;101217.00;5000063;28;20131;-53
2023/04/22 09:10:07;;;;;;;9.00;4.38;;;;;;;17.71;40.92;101218.91;4995847;28;20034;-58
2023/04/22 09:12:32;;;;;;;7.78;4.38;;;;;;;17.77;40.96;101215.78;5001004;28;20037;-58
2023/04/22 09:14:58;;;;;;;9.23;5.05;;;;;;;17.77;40.84;101205.13;4993640;28;20037;-53
2023/04/22 09:17:42;;;;;;;10.02;4.75;;;;;;;17.90;39.78;101216.47;4993110;28;20036;-53
2023/04/22 09:20:09;;;;;;;10.15;5.03;;;;;;;17.98;40.34;101207.88;5001036;28;20041;-53
2023/04/22 09:22:47;;;;;;;9.77;4.60;;;;;;;18.06;40.08;101200.09;4984749;28;20052;-53
2023/04/22 09:25:22;;;;;;;8.57;4.00;;;;;;;18.14;39.45;101199.47;4994907;28;21360;-52
2023/04/22 09:27:52;;;;;;;12.30;5.57;;;;;;;18.21;38.74;101198.00;5001096;28;20040;-56
2023/04/22 09:30:23;;;;;;;10.70;6.22;;;;;;;18.28;38.52;101198.34;5016555;28;20036;-56
2023/04/22 09:32:55;;;;;;;8.35;4.22;;;;;;;18.32;38.68;101194.41;5002453;28;20152;-54
2023/04/22 09:35:32;;;;;;;12.52;6.35;;;;;;;18.42;38.47;101194.50;4988017;28;20496;-56
2023/04/22 09:38:00;;;;;;;12.50;4.97;;;;;;;18.42;38.75;101200.69;5008392;28;20407;-59
2023/04/22 09:40:26;;;;;;;7.88;4.53;;;;;;;18.47;38.80;101192.28;5013406;28;20037;-54
2023/04/22 09:42:54;;;;;;;9.48;4.68;;;;;;;18.48;38.97;101190.47;5011175;28;20041;-55
2023/04/22 09:45:34;;;;;;;7.93;4.35;;;;;;;18.56;37.91;101190.69;5008981;28;20041;-53
2023/04/22 09:48:08;;;;;;;7.45;4.20;;;;;;;18.59;37.78;101185.91;5013072;28;20042;-54
2023/04/22 09:50:34;;;;;;;8.73;4.40;;;;;;;18.62;38.32;101187.47;5014003;28;20104;-53
2023/04/22 09:53:01;;;;;;;9.85;4.28;;;;;;;18.67;38.02;101179.94;5007897;28;20349;-53
2023/04/22 09:55:30;;;;;;;10.35;4.68;;;;;;;18.71;37.67;101173.38;4993680;28;20504;-53
2023/04/22 09:57:56;;;;;;;8.45;4.05;;;;;;;18.74;37.69;101172.25;5008515;28;20545;-58
2023/04/22 10:00:29;;;;;;;9.65;4.35;;;;;;;18.75;35.92;101173.94;5007823;28;20520;-53
2023/04/22 10:02:54;;;;;;;10.75;5.78;;;;;;;18.81;37.03;101162.78;5011783;28;20057;-53
2023/04/22 10:05:20;;;;;;;9.65;5.32;;;;;;;18.89;36.67;101170.94;5011484;28;20030;-51
2023/04/22 10:07:46;;;;;;;8.32;4.63;;;;;;;18.95;36.86;101166.09;5010244;28;20068;-53
2023/04/22 10:10:13;;;;;;;10.10;4.65;;;;;;;18.97;36.25;101167.66;4991834;28;20033;-55
2023/04/22 10:12:38;;;;;;;10.07;3.85;;;;;;;19.01;36.48;101160.22;5006035;28;20815;-52
2023/04/22 10:15:06;;;;;;;9.75;4.88;;;;;;;19.09;36.16;101162.22;5007043;28;20053;-55
2023/04/22 10:17:35;;;;;;;6.15;4.45;;;;;;;19.16;35.93;101161.53;4992505;28;20049;-53
2023/04/22 10:20:03;;;;;;;8.82;7.05;;;;;;;19.26;35.65;101158.06;5005362;28;20041;-52
2023/04/22 10:22:31;;;;;;;10.65;5.25;;;;;;;19.29;35.32;101155.97;5010047;28;20112;-52
2023/04/22 10:24:57;;;;;;;10.52;5.68;;;;;;;19.33;35.32;101152.06;5010196;28;20068;-51
2023/04/22 10:27:23;;;;;;;10.00;6.53;;;;;;;19.39;35.25;101145.34;5011525;28;20451;-53
2023/04/22 10:29:49;;;;;;;11.30;5.65;;;;;;;19.46;35.24;101145.63;5009185;28;20497;-56
2023/04/22 10:32:17;;;;;;;10.80;5.03;;;;;;;19.50;35.19;101142.53;5010299;28;20428;-51
2023/04/22 10:34:47;;;;;;;8.70;5.10;;;;;;;19.54;34.97;101137.75;5007168;28;20701;-51
2023/04/22 10:37:16;;;;;;;9.63;5.13;;;;;;;19.62;35.07;101137.06;5004220;28;20033;-55
2023/04/22 10:40:11;;;;;;;9.25;5.22;;;;;;;19.60;33.94;101136.38;5011324;28;20034;-54
2023/04/22 10:42:40;;;;;;;8.30;5.25;;;;;;;19.65;34.82;101127.00;5007514;28;20033;-55
2023/04/22 10:45:06;;;;;;;8.05;5.07;;;;;;;19.66;35.20;101130.47;5012084;28;20063;-51
2023/04/22 10:47:36;;;;;;;6.88;5.07;;;;;;;19.72;35.08;101123.75;5008088;28;20372;-54
2023/04/22 10:50:25;;;;;;;10.77;5.18;;;;;;;19.78;34.00;101123.19;5011237;28;20371;-53
2023/04/22 10:52:55;;;;;;;11.68;5.20;;;;;;;19.82;34.95;101121.09;5007473;28;20029;-52
2023/04/22 10:55:21;;;;;;;10.38;5.47;;;;;;;19.84;34.68;101127.13;5004775;28;20030;-51
2023/04/22 10:57:48;;;;;;;9.05;4.97;;;;;;;19.92;34.20;101124.63;5010045;28;20198;-50
2023/04/22 11:00:24;;;;;;;7.30;5.05;;;;;;;19.98;33.81;101124.06;5007148;28;20053;-56
2023/04/22 11:03:06;;;;;;;10.23;5.43;;;;;;;19.99;34.14;101124.91;5009236;28;20030;-51
2023/04/22 11:05:34;;;;;;;8.82;5.80;;;;;;;20.04;33.99;101110.13;4994029;28;20045;-52
2023/04/22 11:08:06;;;;;;;7.70;4.88;;;;;;;20.11;33.91;101113.09;5009448;28;20056;-52
2023/04/22 11:10:31;;;;;;;;;;;;;;;20.09;32.54;101107.88;5007402;28;20033;-55
2023/04/22 11:12:57;;;;;;;9.60;4.90;;;;;;;20.13;34.19;101100.44;5010558;28;19967;-51
2023/04/22 11:15:23;;;;;;;9.50;5.43;;;;;;;20.23;34.14;101103.94;5003711;28;20029;-56